Data for 03/05/2008

Time Sea-Level Adjusted Pressure Absolute Pressure Temperature Relative Humidity Dew Point   
(mb) (inHg) (mb) (inHg) (C) (F) (%) (C) (F)
00:05 1020 30.12 849 25.07 -8.1 17.5 86 -10 14
00:10 1020 30.12 850 25.1 -8.2 17.3 86 -10.1 13.9
00:15 1020 30.12 850 25.1 -7.9 17.8 85 -9.9 14.1
00:20 1020 30.12 850 25.1 -7.8 17.9 85 -10 14
00:25 1020 30.12 850 25.1 -8 17.6 84 -10.3 13.4
00:30 1020 30.12 850 25.1 -8.3 17.1 84 -10.5 13.1
00:35 1020 30.12 850 25.1 -8.2 17.2 83 -10.6 12.9
00:40 1020 30.12 850 25.1 -8.5 16.8 83 -10.8 12.6
00:45 1020 30.12 850 25.1 -8.7 16.4 84 -10.9 12.3
00:50 1020 30.12 850 25.1 -8.8 16.3 85 -10.8 12.5
00:55 1020 30.12 849 25.07 -8.6 16.5 85 -10.7 12.8
01:00 1020 30.12 849 25.07 -8.6 16.5 85 -10.7 12.7
01:05 1020 30.12 849 25.07 -9.1 15.6 86 -11 12.2
01:10 1020 30.12 849 25.07 -9.5 15 88 -11.1 12
01:15 1020 30.12 849 25.07 -9.5 14.9 88 -11.2 11.9
01:20 1020 30.12 849 25.07 -9.5 14.9 88 -11.2 11.9
01:25 1020 30.12 849 25.07 -9.4 15.1 88 -11.1 12.1
01:30 1020 30.12 849 25.07 -9.2 15.4 87 -11 12.2
01:35 1020 30.12 849 25.07 -9.4 15.2 87 -11.1 12
01:40 1020 30.12 849 25.07 -9.4 15.2 87 -11.2 11.9
01:45 1020 30.12 849 25.07 -9.4 15.1 87 -11.2 11.8
01:50 1020 30.12 849 25.07 -9.4 15.1 86 -11.3 11.7
01:55 1020 30.12 849 25.07 -9.4 15.1 86 -11.3 11.7
02:00 1020 30.12 849 25.07 -9.3 15.2 86 -11.3 11.6
02:05 1020 30.12 849 25.07 -9.5 15 85 -11.5 11.3
02:10 1020 30.12 849 25.07 -9.7 14.5 85 -11.8 10.8
02:15 1020 30.12 849 25.07 -9.9 14.2 85 -11.9 10.6
02:20 1020 30.12 849 25.07 -10 14 85 -12 10.3
02:25 1020 30.12 849 25.07 -10.2 13.7 86 -12.1 10.2
02:30 1020 30.12 849 25.07 -10.3 13.6 86 -12.2 10
02:35 1020 30.12 849 25.07 -10.4 13.3 86 -12.3 9.8
02:40 1020 30.12 849 25.07 -10.2 13.7 86 -12.1 10.3
02:45 1020 30.12 849 25.07 -9.7 14.6 86 -11.6 11
02:50 1020 30.12 849 25.07 -9.4 15 86 -11.4 11.4
02:55 1020 30.12 849 25.07 -9.4 15 86 -11.3 11.6
03:00 1020 30.12 849 25.07 -9.5 15 86 -11.5 11.4
03:05 1020 30.12 849 25.07 -9.3 15.3 85 -11.3 11.6
03:10 1020 30.12 849 25.07 -9.1 15.6 85 -11.2 11.8
03:15 1020 30.12 849 25.07 -9 15.8 84 -11.2 11.9
03:20 1020 30.12 849 25.07 -9.1 15.6 84 -11.3 11.6
03:25 1020 30.12 849 25.07 -9.1 15.6 84 -11.4 11.5
03:30 1020 30.12 849 25.07 -9.1 15.7 84 -11.3 11.6
03:35 1020 30.12 849 25.07 -9.1 15.7 84 -11.3 11.6
03:40 1020 30.12 849 25.07 -9.1 15.6 84 -11.4 11.6
03:45 1020 30.12 849 25.07 -9.2 15.4 84 -11.5 11.3
03:50 1020 30.12 849 25.07 -9.3 15.3 84 -11.5 11.3
03:55 1020 30.12 849 25.07 -9.3 15.3 85 -11.4 11.5
04:00 1020 30.12 849 25.07 -9.2 15.4 85 -11.3 11.6
04:05 1020 30.12 849 25.07 -9.1 15.6 85 -11.3 11.7
04:10 1020 30.12 849 25.07 -9 15.8 84 -11.2 11.9
04:15 1020 30.12 849 25.07 -9 15.8 84 -11.2 11.9
04:20 1020 30.12 849 25.07 -9.1 15.6 84 -11.3 11.7
04:25 1020 30.12 849 25.07 -9.2 15.5 85 -11.3 11.7
04:30 1020 30.12 849 25.07 -9.2 15.5 85 -11.3 11.6
04:35 1020 30.12 849 25.07 -9.2 15.5 85 -11.3 11.7
04:40 1020 30.12 849 25.07 -9.2 15.5 85 -11.3 11.7
04:45 1020 30.12 849 25.07 -9 15.7 84 -11.2 11.8
04:50 1020 30.12 849 25.07 -9 15.9 84 -11.2 11.9
04:55 1020 30.12 849 25.07 -8.9 16 84 -11.1 12
05:00 1020 30.12 849 25.07 -8.8 16.1 84 -11 12.2
05:05 1020 30.12 849 25.07 -8.7 16.3 85 -10.8 12.5
05:10 1020 30.12 849 25.07 -8.7 16.4 85 -10.8 12.6
05:15 1020 30.12 849 25.07 -8.6 16.5 85 -10.7 12.8
05:20 1020 30.12 849 25.07 -8.5 16.6 85 -10.6 13
05:25 1020 30.12 849 25.07 -8.5 16.7 85 -10.5 13
05:30 1020 30.12 849 25.07 -8.5 16.7 86 -10.5 13.1
05:35 1020 30.12 849 25.07 -8.5 16.8 86 -10.4 13.3
05:40 1020 30.12 850 25.1 -8.5 16.8 86 -10.4 13.2
05:45 1020 30.12 850 25.1 -8.6 16.6 86 -10.5 13.2
05:50 1020 30.12 850 25.1 -8.7 16.4 87 -10.5 13.1
05:55 1020 30.12 850 25.1 -8.7 16.4 87 -10.4 13.2
06:00 1020 30.12 850 25.1 -8.7 16.3 88 -10.3 13.4
06:05 1020 30.12 850 25.1 -8.8 16.1 89 -10.3 13.5
06:10 1020 30.12 849 25.07 -8.9 16 90 -10.2 13.6
06:15 1020 30.12 850 25.1 -8.9 16 91 -10.1 13.7
06:20 1020 30.12 850 25.1 -8.9 16.1 91 -10.1 13.8
06:25 1020 30.12 850 25.1 -8.8 16.2 91 -9.9 14.1
06:30 1020 30.12 850 25.1 -8.7 16.4 92 -9.8 14.4
06:35 1020 30.12 850 25.1 -8.7 16.4 92 -9.8 14.4
06:40 1020 30.12 850 25.1 -8.6 16.5 92 -9.7 14.5
06:45 1020 30.12 850 25.1 -8.5 16.7 92 -9.6 14.8
06:50 1020 30.12 850 25.1 -8.4 17 92 -9.4 15.1
06:55 1020 30.12 850 25.1 -8.3 17.1 92 -9.3 15.2
07:00 1020 30.12 850 25.1 -8.3 17 92 -9.4 15.2
07:05 1020 30.12 850 25.1 -8.3 17 92 -9.3 15.2
07:10 1020 30.12 850 25.1 -8.3 17 93 -9.3 15.3
07:15 1020 30.12 850 25.1 -8.3 17 93 -9.3 15.3
07:20 1020 30.12 850 25.1 -8.3 17.1 93 -9.2 15.4
07:25 1020 30.12 850 25.1 -8.3 17.2 93 -9.2 15.5
07:30 1020 30.12 850 25.1 -8.3 17.1 93 -9.2 15.4
07:35 1020 30.12 850 25.1 -8.3 17 94 -9.2 15.4
07:40 1020 30.12 850 25.1 -8.3 17.2 94 -9.1 15.6
07:45 1021 30.15 850 25.1 -8.1 17.5 94 -8.9 15.9
07:50 1020 30.12 850 25.1 -7.8 17.9 94 -8.7 16.4
07:55 1020 30.12 850 25.1 -7.5 18.5 93 -8.4 16.9
08:00 1021 30.15 850 25.1 -7.3 18.8 93 -8.3 17
08:05 1021 30.15 850 25.1 -7.3 18.9 93 -8.2 17.2
08:10 1021 30.15 850 25.1 -7 19.5 92 -8 17.6
08:15 1021 30.15 850 25.1 -6.8 19.7 92 -7.9 17.7
08:20 1021 30.15 850 25.1 -6.8 19.7 91 -8 17.6
08:25 1021 30.15 850 25.1 -6.7 19.9 91 -7.9 17.7
08:30 1021 30.15 850 25.1 -6.6 20.2 91 -7.8 18
08:35 1021 30.15 850 25.1 -6.4 20.5 91 -7.7 18.2
08:40 1021 30.15 850 25.1 -6.2 20.8 90 -7.7 18.2
08:45 1021 30.15 850 25.1 -6.2 20.9 89 -7.7 18.1
08:50 1021 30.15 850 25.1 -6 21.2 89 -7.5 18.5
08:55 1021 30.15 850 25.1 -5.8 21.6 88 -7.4 18.7
09:00 1021 30.15 850 25.1 -5.5 22 88 -7.2 19
09:05 1021 30.15 850 25.1 -5.6 22 86 -7.5 18.5
09:10 1021 30.15 850 25.1 -6 21.2 87 -7.8 17.9
09:15 1021 30.15 850 25.1 -6.1 21 87 -8 17.6
09:20 1021 30.15 850 25.1 -6.4 20.4 87 -8.2 17.2
09:25 1021 30.15 850 25.1 -6.6 20.2 88 -8.3 17.1
09:30 1021 30.15 850 25.1 -6.2 20.8 87 -8 17.6
09:35 1021 30.15 850 25.1 -5.7 21.7 86 -7.7 18.1
09:40 1021 30.15 850 25.1 -5.8 21.6 85 -7.9 17.8
09:45 1021 30.15 850 25.1 -6 21.2 85 -8.1 17.4
09:50 1021 30.15 850 25.1 -5.5 22.2 85 -7.7 18.2
09:55 1021 30.15 850 25.1 -5.1 22.9 84 -7.4 18.6
10:00 1021 30.15 850 25.1 -5 22.9 83 -7.5 18.6
10:05 1021 30.15 850 25.1 -5.1 22.9 83 -7.5 18.5
10:10 1021 30.15 850 25.1 -5.1 22.9 83 -7.6 18.4
10:15 1021 30.15 850 25.1 -5.3 22.5 84 -7.6 18.3
10:20 1021 30.15 850 25.1 -5.5 22.1 85 -7.7 18.2
10:25 1021 30.15 850 25.1 -5 23 83 -7.4 18.7
10:30 1021 30.15 850 25.1 -5 23 83 -7.4 18.7
10:35 1021 30.15 851 25.13 -4.6 23.6 84 -7 19.4
10:40 1021 30.15 851 25.13 -3.4 25.9 80 -6.4 20.6
10:45 1021 30.15 851 25.13 -3.2 26.3 77 -6.7 20
10:50 1021 30.15 851 25.13 -4.2 24.5 80 -7.2 19.1
10:55 1021 30.15 851 25.13 -4.1 24.7 79 -7.2 19
11:00 1021 30.15 851 25.13 -4 24.9 78 -7.2 19
11:05 1021 30.15 851 25.13 -3.6 25.6 78 -6.9 19.7
11:10 1021 30.15 851 25.13 -3 26.6 76 -6.6 20.1
11:15 1021 30.15 851 25.13 -2.6 27.3 75 -6.4 20.4
11:20 1021 30.15 851 25.13 -3 26.6 74 -6.9 19.5
11:25 1021 30.15 851 25.13 -3.7 25.3 75 -7.5 18.5
11:30 1021 30.15 851 25.13 -4 24.8 76 -7.6 18.3
11:35 1021 30.15 851 25.13 -3.5 25.6 75 -7.3 18.9
11:40 1021 30.15 851 25.13 -3.6 25.5 76 -7.2 19
11:45 1021 30.15 851 25.13 -4.1 24.7 76 -7.6 18.3
11:50 1022 30.18 851 25.13 -4 24.8 77 -7.5 18.4
11:55 1022 30.18 851 25.13 -4.1 24.7 76 -7.7 18.2
12:00 1022 30.18 851 25.13 -4.3 24.2 78 -7.6 18.3
12:05 1022 30.18 851 25.13 -4 24.7 77 -7.4 18.6
12:10 1022 30.18 851 25.13 -3.9 25 80 -6.9 19.6
12:15 1022 30.18 851 25.13 -3.2 26.2 77 -6.8 19.8
12:20 1022 30.18 851 25.13 -3.3 26.1 78 -6.6 20.1
12:25 1022 30.18 851 25.13 -2.4 27.6 74 -6.5 20.3
12:30 1022 30.18 851 25.13 -2.1 28.3 74 -6.1 21
12:35 1022 30.18 851 25.13 -1.5 29.3 72 -5.9 21.3
12:40 1022 30.18 851 25.13 -1.5 29.3 72 -6 21.2
12:45 1022 30.18 851 25.13 -1.4 29.4 70 -6.2 20.9
12:50 1022 30.18 851 25.13 -2.3 27.9 71 -6.8 19.8
12:55 1022 30.18 851 25.13 -3.1 26.3 74 -7.2 19
13:00 1022 30.18 851 25.13 -3.9 25 76 -7.5 18.5
13:05 1021 30.15 851 25.13 -3.7 25.4 77 -7.1 19.2
13:10 1021 30.15 851 25.13 -3.4 25.9 76 -7 19.4
13:15 1021 30.15 851 25.13 -3.4 25.8 77 -7 19.4
13:20 1021 30.15 851 25.13 -3.5 25.7 77 -7 19.4
13:25 1021 30.15 850 25.1 -3.5 25.7 77 -7 19.5
13:30 1021 30.15 850 25.1 -3.1 26.5 76 -6.7 20
13:35 1021 30.15 850 25.1 -2.7 27.1 75 -6.6 20.2
13:40 1021 30.15 850 25.1 -3 26.6 76 -6.6 20.1
13:45 1021 30.15 850 25.1 -3.1 26.5 75 -6.8 19.7
13:50 1021 30.15 850 25.1 -3.1 26.5 75 -6.9 19.7
13:55 1021 30.15 850 25.1 -3.1 26.4 75 -6.9 19.6
14:00 1021 30.15 850 25.1 -3.1 26.4 75 -6.8 19.7
14:05 1021 30.15 850 25.1 -3 26.5 76 -6.8 19.8
14:10 1021 30.15 850 25.1 -2.9 26.9 74 -6.8 19.7
14:15 1021 30.15 850 25.1 -2.9 26.7 76 -6.6 20
14:20 1021 30.15 850 25.1 -2.2 28 73 -6.3 20.6
14:25 1021 30.15 850 25.1 -2.1 28.2 72 -6.4 20.4
14:30 1021 30.15 850 25.1 -1.1 29.9 69 -6.2 20.8
14:35 1021 30.15 850 25.1 -0.2 31.6 66 -5.8 21.5
14:40 1021 30.15 850 25.1 0.1 32.3 63 -6.2 20.9
14:45 1021 30.15 850 25.1 0.2 32.4 61 -6.4 20.5
14:50 1021 30.15 850 25.1 -0.2 31.7 61 -6.8 19.8
14:55 1021 30.15 850 25.1 -1 30.3 63 -7 19.3
15:00 1021 30.15 850 25.1 -0.9 30.4 63 -7.1 19.2
15:05 1021 30.15 850 25.1 -0.7 30.7 64 -6.8 19.8
15:10 1021 30.15 850 25.1 0.1 32.1 59 -7 19.4
15:15 1021 30.15 850 25.1 0.2 32.4 58 -7 19.4
15:20 1021 30.15 850 25.1 0.6 33.2 57 -7 19.4
15:25 1021 30.15 850 25.1 0.9 33.7 55 -7.1 19.2
15:30 1021 30.15 850 25.1 0.9 33.6 55 -7.1 19.2
15:35 1021 30.15 850 25.1 1.1 34 52 -7.6 18.4
15:40 1021 30.15 850 25.1 0.4 32.8 56 -7.4 18.6
15:45 1021 30.15 850 25.1 0.4 32.6 55 -7.7 18.1
15:50 1021 30.15 850 25.1 0.5 32.9 55 -7.6 18.3
15:55 1021 30.15 850 25.1 0.6 33.1 54 -7.7 18.2
16:00 1021 30.15 850 25.1 0.4 32.8 54 -7.7 18.1
16:05 1021 30.15 850 25.1 0.7 33.3 53 -7.7 18.1
16:10 1021 30.15 850 25.1 0.6 33.2 53 -7.8 17.9
16:15 1021 30.15 850 25.1 -0 31.9 55 -8 17.7
16:20 1021 30.15 850 25.1 -0.1 31.8 54 -8.2 17.2
16:25 1020 30.12 850 25.1 -0.4 31.3 56 -8.2 17.3
16:30 1020 30.12 850 25.1 -0 32 53 -8.4 16.9
16:35 1021 30.15 850 25.1 0.5 33 53 -8 17.6
16:40 1020 30.12 850 25.1 0.9 33.5 52 -8 17.5
16:45 1021 30.15 850 25.1 -0.4 31.3 56 -8.2 17.2
16:50 1021 30.15 850 25.1 -0.7 30.8 54 -8.8 16.1
16:55 1021 30.15 850 25.1 -1.2 29.9 56 -8.8 16.1
17:00 1021 30.15 850 25.1 -1.5 29.4 58 -8.6 16.5
17:05 1020 30.12 850 25.1 -0.9 30.4 57 -8.3 17
17:10 1020 30.12 850 25.1 -0 32 53 -8.5 16.7
17:15 1020 30.12 850 25.1 -0.1 31.8 54 -8.4 16.9
17:20 1020 30.12 850 25.1 -0.1 31.9 52 -8.7 16.4
17:25 1020 30.12 850 25.1 -0 31.9 51 -9 15.9
17:30 1020 30.12 850 25.1 -0.5 31.2 51 -9.5 14.9
17:35 1020 30.12 850 25.1 -0.8 30.6 51 -9.8 14.4
17:40 1020 30.12 850 25.1 -0.9 30.4 52 -9.5 14.8
17:45 1020 30.12 850 25.1 -1 30.3 53 -9.4 15.2
17:50 1020 30.12 850 25.1 -1.1 30.1 54 -9.3 15.3
17:55 1020 30.12 850 25.1 -1.3 29.7 57 -8.8 16.2
18:00 1020 30.12 850 25.1 -1.5 29.3 59 -8.6 16.5
18:05 1020 30.12 850 25.1 -1.8 28.7 60 -8.7 16.3
18:10 1021 30.15 850 25.1 -2.2 28 61 -8.8 16.1
18:15 1021 30.15 850 25.1 -2.3 27.8 61 -8.7 16.3
18:20 1021 30.15 850 25.1 -2.2 28.1 62 -8.6 16.5
18:25 1021 30.15 850 25.1 -2.1 28.3 61 -8.6 16.6
18:30 1021 30.15 850 25.1 -2.1 28.3 61 -8.6 16.6
18:35 1021 30.15 850 25.1 -2.1 28.3 61 -8.5 16.6
18:40 1021 30.15 850 25.1 -2 28.5 61 -8.5 16.7
18:45 1021 30.15 850 25.1 -2.3 27.9 62 -8.7 16.4
18:50 1021 30.15 850 25.1 -2.9 26.8 61 -9.4 15.1
18:55 1021 30.15 850 25.1 -4.1 24.6 63 -10.1 13.7
19:00 1021 30.15 850 25.1 -4 24.8 61 -10.4 13.2
19:05 1021 30.15 850 25.1 -4.4 24 63 -10.5 13
19:10 1021 30.15 850 25.1 -4.4 24.1 63 -10.3 13.4
19:15 1021 30.15 850 25.1 -3.9 24.9 62 -10.2 13.7
19:20 1021 30.15 850 25.1 -4 24.9 61 -10.4 13.2
19:25 1021 30.15 850 25.1 -4.6 23.7 62 -10.8 12.6
19:30 1021 30.15 850 25.1 -4.4 24 62 -10.8 12.6
19:35 1021 30.15 850 25.1 -4.4 24.2 61 -10.8 12.6
19:40 1021 30.15 850 25.1 -4.5 23.8 62 -10.8 12.5
19:45 1021 30.15 850 25.1 -4.7 23.5 62 -10.9 12.4
19:50 1021 30.15 850 25.1 -4.4 24 62 -10.7 12.7
19:55 1021 30.15 850 25.1 -4.4 24.1 61 -10.9 12.4
20:00 1021 30.15 850 25.1 -4.6 23.8 61 -11 12.3
20:05 1021 30.15 850 25.1 -4.6 23.6 61 -11 12.2
20:10 1021 30.15 850 25.1 -4.7 23.5 62 -10.9 12.4
20:15 1021 30.15 850 25.1 -4.5 23.9 62 -10.6 12.9
20:20 1021 30.15 850 25.1 -4.2 24.5 62 -10.3 13.4
20:25 1021 30.15 850 25.1 -3.8 25.2 63 -9.9 14.1
20:30 1021 30.15 850 25.1 -3.5 25.8 61 -9.9 14.2
20:35 1021 30.15 850 25.1 -3.5 25.7 62 -9.8 14.3
20:40 1021 30.15 851 25.13 -3.4 25.9 62 -9.6 14.7
20:45 1021 30.15 851 25.13 -3.2 26.2 62 -9.5 15
20:50 1021 30.15 850 25.1 -3.2 26.2 65 -9 15.8
20:55 1021 30.15 850 25.1 -3.3 26 67 -8.6 16.6
21:00 1021 30.15 850 25.1 -3.2 26.3 68 -8.2 17.3
21:05 1021 30.15 850 25.1 -2.8 26.9 68 -8 17.6
21:10 1021 30.15 850 25.1 -2.7 27.1 68 -7.9 17.9
21:15 1021 30.15 850 25.1 -2.7 27.1 68 -7.8 17.9
21:20 1021 30.15 850 25.1 -2.7 27.2 68 -7.8 17.9
21:25 1021 30.15 850 25.1 -2.8 27 69 -7.8 18
21:30 1021 30.15 850 25.1 -2.6 27.3 68 -7.7 18.2
21:35 1021 30.15 850 25.1 -2.4 27.7 68 -7.6 18.4
21:40 1021 30.15 850 25.1 -2.3 27.8 67 -7.6 18.3
21:45 1021 30.15 850 25.1 -2.3 27.9 67 -7.5 18.5
21:50 1021 30.15 850 25.1 -2.4 27.7 68 -7.5 18.6
21:55 1021 30.15 850 25.1 -2.4 27.7 69 -7.4 18.7
22:00 1021 30.15 850 25.1 -2.3 27.8 69 -7.2 19
22:05 1021 30.15 851 25.13 -2.4 27.7 70 -7.2 19
22:10 1021 30.15 851 25.13 -2.5 27.5 70 -7.2 19
22:15 1021 30.15 851 25.13 -2.6 27.4 71 -7.1 19.1
22:20 1021 30.15 851 25.13 -2.5 27.4 71 -7.1 19.3
22:25 1021 30.15 851 25.13 -2.6 27.3 72 -7.1 19.3
22:30 1021 30.15 851 25.13 -2.8 26.9 72 -7.2 19.1
22:35 1021 30.15 851 25.13 -2.8 27 72 -7.1 19.2
22:40 1021 30.15 851 25.13 -2.7 27.1 72 -7.1 19.3
22:45 1021 30.15 851 25.13 -2.6 27.3 72 -6.9 19.5
22:50 1021 30.15 851 25.13 -2.5 27.4 72 -6.9 19.6
22:55 1021 30.15 851 25.13 -2.6 27.3 72 -7 19.5
23:00 1021 30.15 850 25.1 -2.7 27.2 72 -7 19.4
23:05 1021 30.15 850 25.1 -2.7 27.2 72 -7 19.4
23:10 1021 30.15 851 25.13 -2.7 27.2 72 -7.1 19.3
23:15 1021 30.15 851 25.13 -2.8 27 72 -7.1 19.3
23:20 1021 30.15 851 25.13 -2.8 26.9 72 -7.2 19.1
23:25 1021 30.15 851 25.13 -2.8 26.9 71 -7.3 18.8
23:30 1021 30.15 851 25.13 -2.7 27.1 71 -7.3 18.9
23:35 1021 30.15 851 25.13 -2.7 27.1 71 -7.3 18.8
23:40 1021 30.15 850 25.1 -2.7 27.2 70 -7.4 18.7
23:45 1021 30.15 850 25.1 -2.8 27 70 -7.5 18.6
23:50 1021 30.15 850 25.1 -2.8 27 70 -7.5 18.5
23:55 1021 30.15 850 25.1 -2.8 27 71 -7.4 18.7
24:00 1021 30.15 850 25.1 -2.7 27.2 70 -7.4 18.7